sensor_id;sensor_type;location;lat;lon;timestamp;pressure;altitude;pressure_sealevel;temperature;humidity
69848;BME280;57143;55.940;37.496;2023-04-26T00:02:00;91826.88;;;11.36;100.00
69848;BME280;57143;55.940;37.496;2023-04-26T00:04:29;91819.09;;;11.38;100.00
69848;BME280;57143;55.940;37.496;2023-04-26T00:06:57;91833.06;;;11.36;100.00
69848;BME280;57143;55.940;37.496;2023-04-26T00:09:25;91796.25;;;11.39;100.00
69848;BME280;57143;55.940;37.496;2023-04-26T00:11:52;91787.03;;;11.36;100.00
69848;BME280;57143;55.940;37.496;2023-04-26T00:14:19;91727.44;;;11.36;100.00
69848;BME280;57143;55.940;37.496;2023-04-26T00:16:46;91682.34;;;11.46;100.00
69848;BME280;57143;55.940;37.496;2023-04-26T00:19:13;91638.50;;;11.35;100.00
69848;BME280;57143;55.940;37.496;2023-04-26T00:21:42;91629.53;;;11.38;100.00
69848;BME280;57143;55.940;37.496;2023-04-26T00:24:11;91640.28;;;11.41;100.00
69848;BME280;57143;55.940;37.496;2023-04-26T00:26:38;91616.59;;;11.45;100.00
69848;BME280;57143;55.940;37.496;2023-04-26T00:29:05;91546.84;;;11.49;100.00
69848;BME280;57143;55.940;37.496;2023-04-26T00:31:32;91514.78;;;11.48;100.00
69848;BME280;57143;55.940;37.496;2023-04-26T00:33:59;91490.75;;;11.50;100.00
69848;BME280;57143;55.940;37.496;2023-04-26T00:36:27;91507.53;;;11.25;100.00
69848;BME280;57143;55.940;37.496;2023-04-26T00:38:54;91414.16;;;11.33;100.00
69848;BME280;57143;55.940;37.496;2023-04-26T00:41:22;91284.88;;;11.21;100.00
69848;BME280;57143;55.940;37.496;2023-04-26T00:43:50;91202.59;;;11.31;100.00
69848;BME280;57143;55.940;37.496;2023-04-26T00:46:17;91088.31;;;11.24;100.00
69848;BME280;57143;55.940;37.496;2023-04-26T00:48:44;90994.97;;;11.28;100.00
69848;BME280;57143;55.940;37.496;2023-04-26T00:51:11;90903.25;;;11.18;100.00
69848;BME280;57143;55.940;37.496;2023-04-26T00:53:40;90859.06;;;11.21;100.00
69848;BME280;57143;55.940;37.496;2023-04-26T00:56:08;90804.06;;;11.11;100.00
69848;BME280;57143;55.940;37.496;2023-04-26T00:58:38;90766.19;;;11.11;100.00
69848;BME280;57143;55.940;37.496;2023-04-26T01:01:05;90667.75;;;10.96;100.00
69848;BME280;57143;55.940;37.496;2023-04-26T01:03:33;90624.63;;;11.23;100.00
69848;BME280;57143;55.940;37.496;2023-04-26T01:06:00;90571.81;;;11.19;100.00
69848;BME280;57143;55.940;37.496;2023-04-26T01:08:28;90560.34;;;11.06;100.00
69848;BME280;57143;55.940;37.496;2023-04-26T01:10:55;90595.63;;;11.02;100.00
69848;BME280;57143;55.940;37.496;2023-04-26T01:13:23;90585.28;;;11.10;100.00
69848;BME280;57143;55.940;37.496;2023-04-26T01:15:52;90605.31;;;11.12;100.00
69848;BME280;57143;55.940;37.496;2023-04-26T01:18:21;90650.06;;;11.04;100.00
69848;BME280;57143;55.940;37.496;2023-04-26T01:20:48;90707.72;;;11.14;100.00
69848;BME280;57143;55.940;37.496;2023-04-26T01:23:18;90743.22;;;11.16;100.00
69848;BME280;57143;55.940;37.496;2023-04-26T01:25:45;90820.97;;;11.15;100.00
69848;BME280;57143;55.940;37.496;2023-04-26T01:28:13;90893.84;;;11.10;100.00
69848;BME280;57143;55.940;37.496;2023-04-26T01:30:41;90991.81;;;11.17;100.00
69848;BME280;57143;55.940;37.496;2023-04-26T01:33:08;91076.72;;;11.11;100.00
69848;BME280;57143;55.940;37.496;2023-04-26T01:35:36;91164.19;;;11.08;100.00
69848;BME280;57143;55.940;37.496;2023-04-26T01:38:03;91231.44;;;11.09;100.00
69848;BME280;57143;55.940;37.496;2023-04-26T01:40:31;91322.34;;;11.07;100.00
69848;BME280;57143;55.940;37.496;2023-04-26T01:42:59;91464.88;;;11.13;100.00
69848;BME280;57143;55.940;37.496;2023-04-26T01:45:28;91559.63;;;11.13;100.00
69848;BME280;57143;55.940;37.496;2023-04-26T01:47:55;91671.72;;;10.96;100.00
69848;BME280;57143;55.940;37.496;2023-04-26T01:50:22;91755.09;;;11.05;100.00
69848;BME280;57143;55.940;37.496;2023-04-26T01:52:50;91852.31;;;10.96;100.00
69848;BME280;57143;55.940;37.496;2023-04-26T01:55:17;91936.28;;;10.92;100.00
69848;BME280;57143;55.940;37.496;2023-04-26T01:57:46;92198.13;;;10.81;100.00
69848;BME280;57143;55.940;37.496;2023-04-26T02:00:13;92252.63;;;10.83;100.00
69848;BME280;57143;55.940;37.496;2023-04-26T02:02:40;92297.88;;;10.79;100.00
69848;BME280;57143;55.940;37.496;2023-04-26T02:05:09;92405.31;;;10.86;100.00
69848;BME280;57143;55.940;37.496;2023-04-26T02:07:37;92459.81;;;10.91;100.00
69848;BME280;57143;55.940;37.496;2023-04-26T02:10:05;92585.09;;;10.95;100.00
69848;BME280;57143;55.940;37.496;2023-04-26T02:12:33;92661.28;;;10.94;100.00
69848;BME280;57143;55.940;37.496;2023-04-26T02:15:02;92761.84;;;10.78;100.00
69848;BME280;57143;55.940;37.496;2023-04-26T02:17:34;92773.81;;;10.91;100.00
69848;BME280;57143;55.940;37.496;2023-04-26T02:20:02;92822.94;;;10.86;100.00
69848;BME280;57143;55.940;37.496;2023-04-26T02:22:31;92860.81;;;10.79;100.00
69848;BME280;57143;55.940;37.496;2023-04-26T02:24:58;92919.97;;;10.84;100.00
69848;BME280;57143;55.940;37.496;2023-04-26T02:27:26;92918.84;;;10.92;100.00
69848;BME280;57143;55.940;37.496;2023-04-26T02:29:53;92952.88;;;10.93;100.00
69848;BME280;57143;55.940;37.496;2023-04-26T02:32:22;93012.00;;;10.84;100.00
69848;BME280;57143;55.940;37.496;2023-04-26T02:34:49;93039.09;;;10.88;100.00
69848;BME280;57143;55.940;37.496;2023-04-26T02:37:16;93094.38;;;10.83;100.00
69848;BME280;57143;55.940;37.496;2023-04-26T02:39:44;93110.59;;;10.80;100.00
69848;BME280;57143;55.940;37.496;2023-04-26T02:42:15;93108.31;;;10.85;100.00
69848;BME280;57143;55.940;37.496;2023-04-26T02:44:42;93134.22;;;10.86;100.00
69848;BME280;57143;55.940;37.496;2023-04-26T02:47:09;93203.06;;;10.85;100.00
69848;BME280;57143;55.940;37.496;2023-04-26T02:49:38;93374.75;;;10.84;100.00
69848;BME280;57143;55.940;37.496;2023-04-26T02:52:05;93439.97;;;10.72;100.00
69848;BME280;57143;55.940;37.496;2023-04-26T02:54:34;93471.03;;;10.82;100.00
69848;BME280;57143;55.940;37.496;2023-04-26T02:57:01;93486.88;;;10.80;100.00
69848;BME280;57143;55.940;37.496;2023-04-26T02:59:29;93427.16;;;10.66;100.00
69848;BME280;57143;55.940;37.496;2023-04-26T03:01:56;93408.63;;;10.68;100.00
69848;BME280;57143;55.940;37.496;2023-04-26T03:04:23;93495.69;;;10.73;100.00
69848;BME280;57143;55.940;37.496;2023-04-26T03:06:51;93542.03;;;10.68;100.00
69848;BME280;57143;55.940;37.496;2023-04-26T03:09:19;93550.81;;;10.62;100.00
69848;BME280;57143;55.940;37.496;2023-04-26T03:11:46;93496.44;;;10.74;100.00
69848;BME280;57143;55.940;37.496;2023-04-26T03:14:14;93447.72;;;10.74;100.00
69848;BME280;57143;55.940;37.496;2023-04-26T03:16:42;93429.50;;;10.67;100.00
69848;BME280;57143;55.940;37.496;2023-04-26T03:19:10;93424.41;;;10.62;100.00
69848;BME280;57143;55.940;37.496;2023-04-26T03:21:37;93462.09;;;10.78;100.00
69848;BME280;57143;55.940;37.496;2023-04-26T03:24:06;93457.00;;;10.73;100.00
69848;BME280;57143;55.940;37.496;2023-04-26T03:26:33;93396.78;;;10.83;100.00
69848;BME280;57143;55.940;37.496;2023-04-26T03:29:01;93385.53;;;10.81;100.00
69848;BME280;57143;55.940;37.496;2023-04-26T03:31:28;93391.72;;;10.78;100.00
69848;BME280;57143;55.940;37.496;2023-04-26T03:33:55;93385.53;;;10.81;100.00
69848;BME280;57143;55.940;37.496;2023-04-26T03:36:23;93410.69;;;10.81;100.00
69848;BME280;57143;55.940;37.496;2023-04-26T03:38:50;93416.47;;;10.80;100.00
69848;BME280;57143;55.940;37.496;2023-04-26T03:41:18;93449.03;;;10.87;100.00
69848;BME280;57143;55.940;37.496;2023-04-26T03:43:46;93469.09;;;10.82;100.00
69848;BME280;57143;55.940;37.496;2023-04-26T03:46:13;93439.19;;;10.68;100.00
69848;BME280;57143;55.940;37.496;2023-04-26T03:48:41;93473.81;;;10.89;100.00
69848;BME280;57143;55.940;37.496;2023-04-26T03:51:08;93495.44;;;10.85;100.00
69848;BME280;57143;55.940;37.496;2023-04-26T03:53:35;93508.97;;;10.85;100.00
69848;BME280;57143;55.940;37.496;2023-04-26T03:56:02;93533.72;;;10.87;100.00
69848;BME280;57143;55.940;37.496;2023-04-26T03:58:31;93571.97;;;10.82;100.00
69848;BME280;57143;55.940;37.496;2023-04-26T04:00:58;93587.44;;;10.82;100.00
69848;BME280;57143;55.940;37.496;2023-04-26T04:03:25;93600.56;;;10.80;100.00
69848;BME280;57143;55.940;37.496;2023-04-26T04:05:54;93606.66;;;10.73;100.00
69848;BME280;57143;55.940;37.496;2023-04-26T04:08:21;93599.78;;;10.79;100.00
69848;BME280;57143;55.940;37.496;2023-04-26T04:10:49;93590.53;;;10.84;100.00
69848;BME280;57143;55.940;37.496;2023-04-26T04:13:16;93585.00;;;10.73;100.00
69848;BME280;57143;55.940;37.496;2023-04-26T04:15:45;93561.97;;;10.86;100.00
69848;BME280;57143;55.940;37.496;2023-04-26T04:18:12;93564.13;;;10.74;100.00
69848;BME280;57143;55.940;37.496;2023-04-26T04:20:40;93558.94;;;10.91;100.00
69848;BME280;57143;55.940;37.496;2023-04-26T04:23:07;93579.72;;;10.84;100.00
69848;BME280;57143;55.940;37.496;2023-04-26T04:25:34;93555.47;;;10.94;100.00
69848;BME280;57143;55.940;37.496;2023-04-26T04:28:02;93560.53;;;10.96;100.00
69848;BME280;57143;55.940;37.496;2023-04-26T04:30:29;93536.47;;;10.91;100.00
69848;BME280;57143;55.940;37.496;2023-04-26T04:32:58;93555.16;;;10.99;100.00
69848;BME280;57143;55.940;37.496;2023-04-26T04:35:25;93581.41;;;10.95;100.00
69848;BME280;57143;55.940;37.496;2023-04-26T04:37:54;93571.75;;;10.98;100.00
69848;BME280;57143;55.940;37.496;2023-04-26T04:40:23;93592.63;;;10.94;100.00
69848;BME280;57143;55.940;37.496;2023-04-26T04:42:51;93574.09;;;10.99;100.00
69848;BME280;57143;55.940;37.496;2023-04-26T04:45:19;93571.84;;;11.05;100.00
69848;BME280;57143;55.940;37.496;2023-04-26T04:47:46;93570.00;;;11.12;100.00
69848;BME280;57143;55.940;37.496;2023-04-26T04:50:15;93585.84;;;11.10;100.00
69848;BME280;57143;55.940;37.496;2023-04-26T04:52:42;93596.69;;;11.10;100.00
69848;BME280;57143;55.940;37.496;2023-04-26T04:55:09;93601.59;;;11.01;100.00
69848;BME280;57143;55.940;37.496;2023-04-26T04:57:37;93617.56;;;11.10;100.00
69848;BME280;57143;55.940;37.496;2023-04-26T05:00:06;93616.47;;;11.14;100.00
69848;BME280;57143;55.940;37.496;2023-04-26T05:02:35;93631.47;;;11.08;100.00
69848;BME280;57143;55.940;37.496;2023-04-26T05:05:02;93644.16;;;11.01;100.00
69848;BME280;57143;55.940;37.496;2023-04-26T05:07:32;93626.81;;;11.05;100.00
69848;BME280;57143;55.940;37.496;2023-04-26T05:09:59;93636.59;;;11.17;100.00
69848;BME280;57143;55.940;37.496;2023-04-26T05:12:26;93664.38;;;11.10;100.00
69848;BME280;57143;55.940;37.496;2023-04-26T05:14:53;93643.19;;;11.16;100.00
69848;BME280;57143;55.940;37.496;2023-04-26T05:17:21;93639.88;;;11.00;100.00
69848;BME280;57143;55.940;37.496;2023-04-26T05:19:48;93658.97;;;11.10;100.00
69848;BME280;57143;55.940;37.496;2023-04-26T05:22:15;93644.66;;;11.10;100.00
69848;BME280;57143;55.940;37.496;2023-04-26T05:24:47;93625.63;;;11.06;100.00
69848;BME280;57143;55.940;37.496;2023-04-26T05:27:15;93660.47;;;11.04;100.00
69848;BME280;57143;55.940;37.496;2023-04-26T05:29:42;93637.25;;;11.07;100.00
69848;BME280;57143;55.940;37.496;2023-04-26T05:32:09;93636.94;;;11.12;100.00
69848;BME280;57143;55.940;37.496;2023-04-26T05:34:37;93598.66;;;11.13;100.00
69848;BME280;57143;55.940;37.496;2023-04-26T05:37:04;93579.06;;;11.27;100.00
69848;BME280;57143;55.940;37.496;2023-04-26T05:39:31;93580.63;;;11.28;100.00
69848;BME280;57143;55.940;37.496;2023-04-26T05:42:00;93590.66;;;11.24;100.00
69848;BME280;57143;55.940;37.496;2023-04-26T05:44:28;93601.84;;;11.22;100.00
69848;BME280;57143;55.940;37.496;2023-04-26T05:46:55;93594.44;;;11.16;100.00
69848;BME280;57143;55.940;37.496;2023-04-26T05:49:22;93605.75;;;11.25;100.00
69848;BME280;57143;55.940;37.496;2023-04-26T05:51:49;93605.41;;;11.26;100.00
69848;BME280;57143;55.940;37.496;2023-04-26T05:54:16;93596.97;;;11.35;100.00
69848;BME280;57143;55.940;37.496;2023-04-26T05:56:44;93573.47;;;11.46;100.00
69848;BME280;57143;55.940;37.496;2023-04-26T05:59:12;93581.22;;;11.44;100.00
69848;BME280;57143;55.940;37.496;2023-04-26T06:01:39;93590.13;;;11.48;100.00
69848;BME280;57143;55.940;37.496;2023-04-26T06:04:06;93593.63;;;11.48;100.00
69848;BME280;57143;55.940;37.496;2023-04-26T06:06:34;93591.72;;;11.49;100.00
69848;BME280;57143;55.940;37.496;2023-04-26T06:09:02;93623.72;;;11.40;100.00
69848;BME280;57143;55.940;37.496;2023-04-26T06:11:29;93637.00;;;11.48;100.00
69848;BME280;57143;55.940;37.496;2023-04-26T06:13:56;93610.75;;;11.56;100.00
69848;BME280;57143;55.940;37.496;2023-04-26T06:16:25;93654.75;;;11.46;100.00
69848;BME280;57143;55.940;37.496;2023-04-26T06:18:52;93649.50;;;11.60;100.00
69848;BME280;57143;55.940;37.496;2023-04-26T06:21:19;93635.13;;;11.52;100.00
69848;BME280;57143;55.940;37.496;2023-04-26T06:23:46;93655.09;;;11.41;100.00
69848;BME280;57143;55.940;37.496;2023-04-26T06:26:13;93662.31;;;11.59;100.00
69848;BME280;57143;55.940;37.496;2023-04-26T06:28:40;93659.72;;;11.70;100.00
69848;BME280;57143;55.940;37.496;2023-04-26T06:31:07;93662.78;;;11.69;100.00
69848;BME280;57143;55.940;37.496;2023-04-26T06:33:36;93658.16;;;11.69;100.00
69848;BME280;57143;55.940;37.496;2023-04-26T06:36:04;93685.94;;;11.62;100.00
69848;BME280;57143;55.940;37.496;2023-04-26T06:38:31;93697.22;;;11.65;100.00
69848;BME280;57143;55.940;37.496;2023-04-26T06:40:58;93700.75;;;11.69;100.00
69848;BME280;57143;55.940;37.496;2023-04-26T06:43:26;93702.00;;;11.75;100.00
69848;BME280;57143;55.940;37.496;2023-04-26T06:45:53;93689.59;;;11.77;100.00
69848;BME280;57143;55.940;37.496;2023-04-26T06:48:20;93720.13;;;11.71;100.00
69848;BME280;57143;55.940;37.496;2023-04-26T06:50:49;93707.81;;;11.77;100.00
69848;BME280;57143;55.940;37.496;2023-04-26T06:53:16;93705.53;;;11.82;100.00
69848;BME280;57143;55.940;37.496;2023-04-26T06:55:43;93706.75;;;11.85;100.00
69848;BME280;57143;55.940;37.496;2023-04-26T06:58:10;93701.78;;;11.90;100.00
69848;BME280;57143;55.940;37.496;2023-04-26T07:00:38;93699.94;;;12.01;100.00
69848;BME280;57143;55.940;37.496;2023-04-26T07:03:05;93718.44;;;11.89;100.00
69848;BME280;57143;55.940;37.496;2023-04-26T07:05:32;93719.25;;;11.96;100.00
69848;BME280;57143;55.940;37.496;2023-04-26T07:08:00;93711.19;;;12.03;100.00
69848;BME280;57143;55.940;37.496;2023-04-26T07:10:28;93709.34;;;12.11;100.00
69848;BME280;57143;55.940;37.496;2023-04-26T07:12:55;93726.72;;;12.03;100.00
69848;BME280;57143;55.940;37.496;2023-04-26T07:15:22;93731.69;;;11.97;100.00
69848;BME280;57143;55.940;37.496;2023-04-26T07:17:50;93751.47;;;12.01;100.00
69848;BME280;57143;55.940;37.496;2023-04-26T07:20:17;93760.16;;;12.14;100.00
69848;BME280;57143;55.940;37.496;2023-04-26T07:22:47;93761.38;;;12.20;100.00
69848;BME280;57143;55.940;37.496;2023-04-26T07:25:16;93758.75;;;12.27;100.00
69848;BME280;57143;55.940;37.496;2023-04-26T07:27:43;93779.28;;;12.28;100.00
69848;BME280;57143;55.940;37.496;2023-04-26T07:30:11;93772.28;;;12.23;100.00
69848;BME280;57143;55.940;37.496;2023-04-26T07:32:38;93765.91;;;12.45;100.00
69848;BME280;57143;55.940;37.496;2023-04-26T07:35:06;93799.16;;;12.35;100.00
69848;BME280;57143;55.940;37.496;2023-04-26T07:37:35;93796.28;;;12.58;100.00
69848;BME280;57143;55.940;37.496;2023-04-26T07:40:02;93833.06;;;12.52;100.00
69848;BME280;57143;55.940;37.496;2023-04-26T07:42:34;93835.47;;;12.60;100.00
69848;BME280;57143;55.940;37.496;2023-04-26T07:45:01;93855.72;;;12.66;100.00
69848;BME280;57143;55.940;37.496;2023-04-26T07:47:31;93876.16;;;12.57;100.00
69848;BME280;57143;55.940;37.496;2023-04-26T07:49:59;93890.25;;;12.69;100.00
69848;BME280;57143;55.940;37.496;2023-04-26T07:52:26;93913.50;;;12.67;100.00
69848;BME280;57143;55.940;37.496;2023-04-26T07:54:53;93927.91;;;12.71;100.00
69848;BME280;57143;55.940;37.496;2023-04-26T07:57:20;93936.59;;;12.84;100.00
69848;BME280;57143;55.940;37.496;2023-04-26T07:59:49;93969.88;;;12.77;100.00
69848;BME280;57143;55.940;37.496;2023-04-26T08:02:16;93983.44;;;12.77;100.00
69848;BME280;57143;55.940;37.496;2023-04-26T08:04:46;93989.41;;;12.90;100.00
69848;BME280;57143;55.940;37.496;2023-04-26T08:07:14;94001.03;;;12.87;100.00
69848;BME280;57143;55.940;37.496;2023-04-26T08:09:41;94008.84;;;12.92;100.00
69848;BME280;57143;55.940;37.496;2023-04-26T08:12:10;94033.88;;;13.04;100.00
69848;BME280;57143;55.940;37.496;2023-04-26T08:14:37;94073.22;;;12.88;100.00
69848;BME280;57143;55.940;37.496;2023-04-26T08:17:06;94087.44;;;13.04;100.00
69848;BME280;57143;55.940;37.496;2023-04-26T08:19:34;94116.34;;;12.93;100.00
69848;BME280;57143;55.940;37.496;2023-04-26T08:22:02;94139.72;;;13.23;100.00
69848;BME280;57143;55.940;37.496;2023-04-26T08:24:30;94139.25;;;13.47;100.00
69848;BME280;57143;55.940;37.496;2023-04-26T08:26:57;94153.69;;;13.55;100.00
69848;BME280;57143;55.940;37.496;2023-04-26T08:29:26;94211.88;;;13.47;100.00
69848;BME280;57143;55.940;37.496;2023-04-26T08:31:53;94257.78;;;13.52;100.00
69848;BME280;57143;55.940;37.496;2023-04-26T08:34:22;94330.88;;;13.31;100.00
69848;BME280;57143;55.940;37.496;2023-04-26T08:36:49;94366.81;;;13.21;100.00
69848;BME280;57143;55.940;37.496;2023-04-26T08:39:17;94388.09;;;13.15;100.00
69848;BME280;57143;55.940;37.496;2023-04-26T08:41:48;94472.47;;;13.22;100.00
69848;BME280;57143;55.940;37.496;2023-04-26T08:44:17;94533.28;;;12.95;100.00
69848;BME280;57143;55.940;37.496;2023-04-26T08:46:56;94559.22;;;12.93;100.00
69848;BME280;57143;55.940;37.496;2023-04-26T08:49:35;94571.19;;;13.07;100.00
69848;BME280;57143;55.940;37.496;2023-04-26T08:52:07;94584.06;;;13.10;100.00
69848;BME280;57143;55.940;37.496;2023-04-26T08:54:36;94607.16;;;13.01;100.00
69848;BME280;57143;55.940;37.496;2023-04-26T08:57:03;94596.63;;;12.99;100.00
69848;BME280;57143;55.940;37.496;2023-04-26T08:59:32;94623.19;;;13.06;100.00
69848;BME280;57143;55.940;37.496;2023-04-26T09:02:00;94642.94;;;13.03;100.00
69848;BME280;57143;55.940;37.496;2023-04-26T09:04:29;94648.53;;;13.10;100.00
69848;BME280;57143;55.940;37.496;2023-04-26T09:06:59;94633.94;;;13.18;100.00
69848;BME280;57143;55.940;37.496;2023-04-26T09:09:28;94689.53;;;13.39;100.00
69848;BME280;57143;55.940;37.496;2023-04-26T09:11:59;94702.22;;;13.51;100.00
69848;BME280;57143;55.940;37.496;2023-04-26T09:14:28;94766.50;;;13.24;100.00
69848;BME280;57143;55.940;37.496;2023-04-26T09:16:55;94761.34;;;13.54;100.00
69848;BME280;57143;55.940;37.496;2023-04-26T09:19:38;94770.00;;;13.59;100.00
69848;BME280;57143;55.940;37.496;2023-04-26T09:22:07;94791.31;;;13.57;100.00
69848;BME280;57143;55.940;37.496;2023-04-26T09:24:46;94811.94;;;13.58;100.00
69848;BME280;57143;55.940;37.496;2023-04-26T09:27:14;94865.66;;;13.46;100.00
69848;BME280;57143;55.940;37.496;2023-04-26T09:29:56;94882.75;;;13.62;100.00
69848;BME280;57143;55.940;37.496;2023-04-26T09:32:24;94923.91;;;13.60;100.00
69848;BME280;57143;55.940;37.496;2023-04-26T09:34:53;94937.59;;;13.64;100.00
69848;BME280;57143;55.940;37.496;2023-04-26T09:37:20;94951.91;;;13.61;100.00
69848;BME280;57143;55.940;37.496;2023-04-26T09:39:47;94977.31;;;13.68;100.00
69848;BME280;57143;55.940;37.496;2023-04-26T09:42:16;94998.16;;;13.61;100.00
69848;BME280;57143;55.940;37.496;2023-04-26T09:44:44;95010.31;;;13.82;100.00
69848;BME280;57143;55.940;37.496;2023-04-26T09:47:12;95054.22;;;13.81;100.00
69848;BME280;57143;55.940;37.496;2023-04-26T09:49:44;95065.19;;;13.69;100.00
69848;BME280;57143;55.940;37.496;2023-04-26T09:52:14;95113.25;;;13.93;100.00
69848;BME280;57143;55.940;37.496;2023-04-26T09:54:47;95124.56;;;14.10;100.00
69848;BME280;57143;55.940;37.496;2023-04-26T09:57:15;95180.06;;;14.06;100.00
69848;BME280;57143;55.940;37.496;2023-04-26T09:59:44;95211.00;;;14.13;100.00
69848;BME280;57143;55.940;37.496;2023-04-26T10:02:17;95231.72;;;14.18;100.00
69848;BME280;57143;55.940;37.496;2023-04-26T10:04:46;95296.97;;;14.26;100.00
69848;BME280;57143;55.940;37.496;2023-04-26T10:07:16;95321.59;;;14.18;100.00
69848;BME280;57143;55.940;37.496;2023-04-26T10:09:44;95362.69;;;14.13;100.00
69848;BME280;57143;55.940;37.496;2023-04-26T10:12:13;95403.84;;;14.23;100.00
69848;BME280;57143;55.940;37.496;2023-04-26T10:14:41;95447.06;;;14.25;100.00
69848;BME280;57143;55.940;37.496;2023-04-26T10:17:09;95448.06;;;14.44;100.00
69848;BME280;57143;55.940;37.496;2023-04-26T10:19:39;95455.06;;;14.57;100.00
69848;BME280;57143;55.940;37.496;2023-04-26T10:22:12;95481.38;;;14.65;100.00
69848;BME280;57143;55.940;37.496;2023-04-26T10:24:44;95497.88;;;14.84;100.00
69848;BME280;57143;55.940;37.496;2023-04-26T10:27:11;95518.06;;;14.95;100.00
69848;BME280;57143;55.940;37.496;2023-04-26T10:30:12;95578.91;;;15.12;100.00
69848;BME280;57143;55.940;37.496;2023-04-26T10:33:10;95650.69;;;15.28;100.00
69848;BME280;57143;55.940;37.496;2023-04-26T10:36:01;95727.03;;;15.52;100.00
69848;BME280;57143;55.940;37.496;2023-04-26T10:38:29;95832.69;;;15.39;100.00
69848;BME280;57143;55.940;37.496;2023-04-26T10:41:29;95883.88;;;15.42;100.00
69848;BME280;57143;55.940;37.496;2023-04-26T10:43:58;95961.19;;;15.14;100.00
69848;BME280;57143;55.940;37.496;2023-04-26T10:46:36;96039.13;;;15.02;100.00
69848;BME280;57143;55.940;37.496;2023-04-26T10:49:14;96089.47;;;14.84;100.00
69848;BME280;57143;55.940;37.496;2023-04-26T10:52:15;96145.91;;;14.63;100.00
69848;BME280;57143;55.940;37.496;2023-04-26T10:54:52;96162.81;;;14.77;100.00
69848;BME280;57143;55.940;37.496;2023-04-26T10:57:22;96182.88;;;15.02;100.00
69848;BME280;57143;55.940;37.496;2023-04-26T11:00:17;96190.59;;;15.21;100.00
69848;BME280;57143;55.940;37.496;2023-04-26T11:02:52;96201.13;;;15.31;100.00
69848;BME280;57143;55.940;37.496;2023-04-26T11:05:55;96220.81;;;15.36;100.00
69848;BME280;57143;55.940;37.496;2023-04-26T11:08:26;96212.72;;;15.48;100.00
69848;BME280;57143;55.940;37.496;2023-04-26T11:11:12;96254.47;;;15.69;100.00
69848;BME280;57143;55.940;37.496;2023-04-26T11:13:43;96288.81;;;15.70;100.00
69848;BME280;57143;55.940;37.496;2023-04-26T11:16:12;96327.41;;;16.10;100.00
69848;BME280;57143;55.940;37.496;2023-04-26T11:18:41;96376.38;;;16.15;100.00
69848;BME280;57143;55.940;37.496;2023-04-26T11:21:09;96416.69;;;15.97;100.00
69848;BME280;57143;55.940;37.496;2023-04-26T11:23:37;96479.84;;;15.58;100.00
69848;BME280;57143;55.940;37.496;2023-04-26T11:26:05;96507.50;;;15.48;100.00
69848;BME280;57143;55.940;37.496;2023-04-26T11:28:34;96548.66;;;15.18;100.00
69848;BME280;57143;55.940;37.496;2023-04-26T11:31:04;96560.09;;;14.85;100.00
69848;BME280;57143;55.940;37.496;2023-04-26T11:33:32;96578.19;;;14.56;100.00
69848;BME280;57143;55.940;37.496;2023-04-26T11:36:00;96542.25;;;14.54;100.00
69848;BME280;57143;55.940;37.496;2023-04-26T11:38:27;96501.69;;;14.69;100.00
69848;BME280;57143;55.940;37.496;2023-04-26T11:40:56;96473.63;;;14.77;100.00
69848;BME280;57143;55.940;37.496;2023-04-26T11:43:29;96436.53;;;15.02;100.00
69848;BME280;57143;55.940;37.496;2023-04-26T11:45:57;96408.03;;;15.29;100.00
69848;BME280;57143;55.940;37.496;2023-04-26T11:48:27;96404.78;;;15.35;100.00
69848;BME280;57143;55.940;37.496;2023-04-26T11:50:56;96395.78;;;15.43;100.00
69848;BME280;57143;55.940;37.496;2023-04-26T11:53:27;96415.06;;;15.38;100.00
69848;BME280;57143;55.940;37.496;2023-04-26T11:56:00;96423.72;;;15.49;100.00
69848;BME280;57143;55.940;37.496;2023-04-26T11:58:28;96446.69;;;15.48;100.00
69848;BME280;57143;55.940;37.496;2023-04-26T12:00:56;96447.19;;;15.70;100.00
69848;BME280;57143;55.940;37.496;2023-04-26T12:03:29;96473.66;;;15.49;100.00
69848;BME280;57143;55.940;37.496;2023-04-26T12:05:57;96506.81;;;15.68;100.00
69848;BME280;57143;55.940;37.496;2023-04-26T12:08:26;96531.59;;;15.55;100.00
69848;BME280;57143;55.940;37.496;2023-04-26T12:10:58;96541.22;;;15.52;100.00
69848;BME280;57143;55.940;37.496;2023-04-26T12:13:26;96593.75;;;15.24;100.00
69848;BME280;57143;55.940;37.496;2023-04-26T12:15:53;96619.91;;;15.33;100.00
69848;BME280;57143;55.940;37.496;2023-04-26T12:18:21;96639.03;;;15.42;100.00
69848;BME280;57143;55.940;37.496;2023-04-26T12:20:57;96665.31;;;15.38;100.00
69848;BME280;57143;55.940;37.496;2023-04-26T12:23:25;96687.47;;;15.36;100.00
69848;BME280;57143;55.940;37.496;2023-04-26T12:25:53;96706.59;;;15.36;100.00
69848;BME280;57143;55.940;37.496;2023-04-26T12:28:21;96729.72;;;15.39;100.00
69848;BME280;57143;55.940;37.496;2023-04-26T12:30:49;96738.72;;;15.39;100.00
69848;BME280;57143;55.940;37.496;2023-04-26T12:33:17;96775.13;;;15.35;100.00
69848;BME280;57143;55.940;37.496;2023-04-26T12:35:48;96789.72;;;15.13;100.00
69848;BME280;57143;55.940;37.496;2023-04-26T12:38:17;96834.28;;;15.08;100.00
69848;BME280;57143;55.940;37.496;2023-04-26T12:40:45;96861.88;;;15.07;100.00
69848;BME280;57143;55.940;37.496;2023-04-26T12:43:12;96899.88;;;14.95;100.00
69848;BME280;57143;55.940;37.496;2023-04-26T12:45:40;96898.88;;;14.91;100.00
69848;BME280;57143;55.940;37.496;2023-04-26T12:48:07;96898.22;;;14.85;100.00
69848;BME280;57143;55.940;37.496;2023-04-26T12:50:35;96910.13;;;14.98;100.00